CJA weather

Mayor General FAP Armando Revoredo Iglesias Airport
Cajamarca, Cajamarca Region, PerĂº

Public forecast

Using degrees Celsius for public forecast. Weather courtesy of forecast.io.

METAR (pilot weather report)

Report is more than 2 hours old.

Retrieved 2019/07/17 23:00 UTC (3 hours ago):

SPJR 172300Z 09006KT 340V120 9999 SCT023 BKN043 17/07 Q1027 RMK PP000

TAF (pilot weather forecast)

Forecast is more than 12 hours old.

Retrieved 2019/07/16 12:33 UTC (2 days ago):

TAF SPJR 161030Z 1612/1712 VRB02KT 9999 FEW030 SCT050 TX22/1619Z TN03/1711Z TEMPO 1612/1615 CAVOK BECMG 1616/1617 28006KT